sensor_id;sensor_type;location;lat;lon;timestamp;pressure;altitude;pressure_sealevel;temperature;humidity
73518;BME280;61766;60.318;25.044;2024-02-23T00:02:14;99975.44;;;2.52;55.64
73518;BME280;61766;60.318;25.044;2024-02-23T00:04:39;99972.09;;;2.55;55.67
73518;BME280;61766;60.318;25.044;2024-02-23T00:07:05;99972.32;;;2.49;55.92
73518;BME280;61766;60.318;25.044;2024-02-23T00:09:30;99971.94;;;1.98;56.90
73518;BME280;61766;60.318;25.044;2024-02-23T00:11:55;99964.75;;;2.22;56.37
73518;BME280;61766;60.318;25.044;2024-02-23T00:14:20;99962.87;;;2.75;55.89
73518;BME280;61766;60.318;25.044;2024-02-23T00:16:45;99962.62;;;3.03;54.43
73518;BME280;61766;60.318;25.044;2024-02-23T00:19:11;99965.07;;;1.11;58.22
73518;BME280;61766;60.318;25.044;2024-02-23T00:21:36;99967.30;;;1.79;58.36
73518;BME280;61766;60.318;25.044;2024-02-23T00:24:01;99958.46;;;2.33;56.01
73518;BME280;61766;60.318;25.044;2024-02-23T00:26:26;99964.90;;;1.92;56.52
73518;BME280;61766;60.318;25.044;2024-02-23T00:28:52;99963.28;;;1.78;56.68
73518;BME280;61766;60.318;25.044;2024-02-23T00:31:17;99958.55;;;2.05;55.94
73518;BME280;61766;60.318;25.044;2024-02-23T00:33:42;99958.82;;;3.19;54.42
73518;BME280;61766;60.318;25.044;2024-02-23T00:36:07;99949.39;;;2.52;55.21
73518;BME280;61766;60.318;25.044;2024-02-23T00:38:32;99953.48;;;1.93;56.90
73518;BME280;61766;60.318;25.044;2024-02-23T00:40:58;99953.47;;;1.42;57.35
73518;BME280;61766;60.318;25.044;2024-02-23T00:43:23;99944.68;;;2.34;56.22
73518;BME280;61766;60.318;25.044;2024-02-23T00:45:48;99941.97;;;2.27;55.72
73518;BME280;61766;60.318;25.044;2024-02-23T00:48:14;99937.57;;;3.09;53.99
73518;BME280;61766;60.318;25.044;2024-02-23T00:50:39;99933.93;;;2.98;53.99
73518;BME280;61766;60.318;25.044;2024-02-23T00:53:04;99934.60;;;3.47;52.80
73518;BME280;61766;60.318;25.044;2024-02-23T00:55:29;99928.29;;;2.46;54.77
73518;BME280;61766;60.318;25.044;2024-02-23T00:57:54;99927.40;;;2.26;55.44
73518;BME280;61766;60.318;25.044;2024-02-23T01:00:20;99927.29;;;2.55;54.71
73518;BME280;61766;60.318;25.044;2024-02-23T01:02:45;99918.62;;;2.43;54.90
73518;BME280;61766;60.318;25.044;2024-02-23T01:05:10;99919.83;;;1.84;56.34
73518;BME280;61766;60.318;25.044;2024-02-23T01:07:35;99911.36;;;2.11;56.94
73518;BME280;61766;60.318;25.044;2024-02-23T01:10:00;99907.95;;;2.29;55.59
73518;BME280;61766;60.318;25.044;2024-02-23T01:12:25;99904.49;;;2.87;54.35
73518;BME280;61766;60.318;25.044;2024-02-23T01:14:51;99899.41;;;2.82;54.22
73518;BME280;61766;60.318;25.044;2024-02-23T01:17:16;99897.62;;;3.12;53.99
73518;BME280;61766;60.318;25.044;2024-02-23T01:19:41;99895.54;;;2.60;54.35
73518;BME280;61766;60.318;25.044;2024-02-23T01:22:06;99893.45;;;2.27;55.06
73518;BME280;61766;60.318;25.044;2024-02-23T01:24:32;99887.08;;;3.30;53.09
73518;BME280;61766;60.318;25.044;2024-02-23T01:26:57;99882.13;;;2.60;54.23
73518;BME280;61766;60.318;25.044;2024-02-23T01:29:22;99883.45;;;1.92;57.03
73518;BME280;61766;60.318;25.044;2024-02-23T01:31:47;99886.08;;;2.45;54.75
73518;BME280;61766;60.318;25.044;2024-02-23T01:34:13;99887.77;;;2.78;55.51
73518;BME280;61766;60.318;25.044;2024-02-23T01:36:38;99881.44;;;2.40;56.26
73518;BME280;61766;60.318;25.044;2024-02-23T01:39:04;99883.31;;;1.29;58.75
73518;BME280;61766;60.318;25.044;2024-02-23T01:41:29;99884.51;;;2.21;56.09
73518;BME280;61766;60.318;25.044;2024-02-23T01:43:54;99872.77;;;1.70;57.22
73518;BME280;61766;60.318;25.044;2024-02-23T01:46:19;99870.09;;;2.88;55.57
73518;BME280;61766;60.318;25.044;2024-02-23T01:48:44;99872.40;;;2.58;54.88
73518;BME280;61766;60.318;25.044;2024-02-23T01:51:09;99868.46;;;2.69;54.33
73518;BME280;61766;60.318;25.044;2024-02-23T01:53:35;99871.45;;;3.65;52.80
73518;BME280;61766;60.318;25.044;2024-02-23T01:56:00;99869.89;;;3.29;52.89
73518;BME280;61766;60.318;25.044;2024-02-23T01:58:25;99870.39;;;3.48;52.46
73518;BME280;61766;60.318;25.044;2024-02-23T02:00:50;99864.33;;;3.45;51.74
73518;BME280;61766;60.318;25.044;2024-02-23T02:03:15;99863.73;;;3.20;52.71
73518;BME280;61766;60.318;25.044;2024-02-23T02:05:41;99863.56;;;2.38;54.42
73518;BME280;61766;60.318;25.044;2024-02-23T02:08:07;99861.90;;;2.42;55.02
73518;BME280;61766;60.318;25.044;2024-02-23T02:10:32;99854.26;;;1.86;55.96
73518;BME280;61766;60.318;25.044;2024-02-23T02:13:01;99849.77;;;1.76;56.44
73518;BME280;61766;60.318;25.044;2024-02-23T02:15:22;99847.24;;;2.12;56.52
73518;BME280;61766;60.318;25.044;2024-02-23T02:17:47;99836.34;;;2.06;57.08
73518;BME280;61766;60.318;25.044;2024-02-23T02:20:14;99835.58;;;2.05;56.18
73518;BME280;61766;60.318;25.044;2024-02-23T02:22:38;99841.16;;;2.23;57.23
73518;BME280;61766;60.318;25.044;2024-02-23T02:25:03;99845.35;;;1.76;56.82
73518;BME280;61766;60.318;25.044;2024-02-23T02:27:28;99839.23;;;2.53;56.42
73518;BME280;61766;60.318;25.044;2024-02-23T02:29:53;99841.77;;;1.33;59.10
73518;BME280;61766;60.318;25.044;2024-02-23T02:32:18;99840.92;;;2.15;57.52
73518;BME280;61766;60.318;25.044;2024-02-23T02:34:43;99841.43;;;1.00;60.88
73518;BME280;61766;60.318;25.044;2024-02-23T02:37:09;99844.47;;;0.70;62.55
73518;BME280;61766;60.318;25.044;2024-02-23T02:39:34;99842.24;;;1.71;60.26
73518;BME280;61766;60.318;25.044;2024-02-23T02:41:59;99832.36;;;0.43;63.34
73518;BME280;61766;60.318;25.044;2024-02-23T02:44:25;99831.36;;;1.36;61.25
73518;BME280;61766;60.318;25.044;2024-02-23T02:46:50;99832.30;;;1.04;61.49
73518;BME280;61766;60.318;25.044;2024-02-23T02:49:16;99828.00;;;0.94;61.19
73518;BME280;61766;60.318;25.044;2024-02-23T02:51:42;99817.80;;;1.79;59.38
73518;BME280;61766;60.318;25.044;2024-02-23T02:54:07;99813.84;;;1.38;59.51
73518;BME280;61766;60.318;25.044;2024-02-23T02:56:32;99817.05;;;2.30;57.45
73518;BME280;61766;60.318;25.044;2024-02-23T02:58:59;99820.33;;;2.40;56.77
73518;BME280;61766;60.318;25.044;2024-02-23T03:01:23;99819.20;;;2.07;56.51
73518;BME280;61766;60.318;25.044;2024-02-23T03:03:49;99819.50;;;1.58;58.51
73518;BME280;61766;60.318;25.044;2024-02-23T03:06:14;99816.84;;;2.07;58.72
73518;BME280;61766;60.318;25.044;2024-02-23T03:08:41;99814.89;;;2.09;57.93
73518;BME280;61766;60.318;25.044;2024-02-23T03:11:05;99805.36;;;2.38;57.18
73518;BME280;61766;60.318;25.044;2024-02-23T03:13:30;99805.65;;;1.99;58.31
73518;BME280;61766;60.318;25.044;2024-02-23T03:15:56;99801.08;;;1.69;58.51
73518;BME280;61766;60.318;25.044;2024-02-23T03:18:21;99798.27;;;1.24;60.21
73518;BME280;61766;60.318;25.044;2024-02-23T03:20:46;99791.45;;;1.95;58.45
73518;BME280;61766;60.318;25.044;2024-02-23T03:23:11;99789.84;;;1.78;58.64
73518;BME280;61766;60.318;25.044;2024-02-23T03:25:37;99789.29;;;1.06;60.96
73518;BME280;61766;60.318;25.044;2024-02-23T03:28:02;99786.26;;;1.26;59.85
73518;BME280;61766;60.318;25.044;2024-02-23T03:30:28;99781.59;;;0.98;62.29
73518;BME280;61766;60.318;25.044;2024-02-23T03:32:53;99780.74;;;0.08;63.86
73518;BME280;61766;60.318;25.044;2024-02-23T03:35:19;99770.61;;;1.46;61.18
73518;BME280;61766;60.318;25.044;2024-02-23T03:37:44;99763.16;;;1.48;61.22
73518;BME280;61766;60.318;25.044;2024-02-23T03:40:10;99757.33;;;1.29;60.58
73518;BME280;61766;60.318;25.044;2024-02-23T03:42:35;99755.36;;;0.89;61.04
73518;BME280;61766;60.318;25.044;2024-02-23T03:45:01;99755.63;;;2.08;58.62
73518;BME280;61766;60.318;25.044;2024-02-23T03:47:26;99751.94;;;1.47;60.12
73518;BME280;61766;60.318;25.044;2024-02-23T03:49:51;99749.29;;;1.91;59.17
73518;BME280;61766;60.318;25.044;2024-02-23T03:52:17;99744.15;;;1.53;59.91
73518;BME280;61766;60.318;25.044;2024-02-23T03:54:42;99744.14;;;0.80;61.58
73518;BME280;61766;60.318;25.044;2024-02-23T03:57:08;99736.86;;;1.16;62.08
73518;BME280;61766;60.318;25.044;2024-02-23T03:59:35;99736.47;;;1.76;60.45
73518;BME280;61766;60.318;25.044;2024-02-23T04:01:59;99738.64;;;0.54;63.03
73518;BME280;61766;60.318;25.044;2024-02-23T04:04:23;99738.94;;;0.51;63.50
73518;BME280;61766;60.318;25.044;2024-02-23T04:06:49;99738.82;;;0.09;64.72
73518;BME280;61766;60.318;25.044;2024-02-23T04:09:14;99729.25;;;0.08;65.32
73518;BME280;61766;60.318;25.044;2024-02-23T04:11:39;99721.58;;;0.87;64.17
73518;BME280;61766;60.318;25.044;2024-02-23T04:14:05;99722.07;;;0.29;64.29
73518;BME280;61766;60.318;25.044;2024-02-23T04:16:31;99728.72;;;0.46;64.30
73518;BME280;61766;60.318;25.044;2024-02-23T04:18:57;99720.08;;;1.70;61.47
73518;BME280;61766;60.318;25.044;2024-02-23T04:21:22;99710.80;;;1.78;60.28
73518;BME280;61766;60.318;25.044;2024-02-23T04:23:47;99708.13;;;0.70;62.37
73518;BME280;61766;60.318;25.044;2024-02-23T04:26:13;99708.29;;;1.78;60.82
73518;BME280;61766;60.318;25.044;2024-02-23T04:28:41;99708.25;;;2.21;59.11
73518;BME280;61766;60.318;25.044;2024-02-23T04:31:04;99705.93;;;1.49;60.09
73518;BME280;61766;60.318;25.044;2024-02-23T04:33:29;99700.59;;;1.92;59.79
73518;BME280;61766;60.318;25.044;2024-02-23T04:35:55;99699.08;;;1.36;60.25
73518;BME280;61766;60.318;25.044;2024-02-23T04:38:20;99694.69;;;0.99;61.77
73518;BME280;61766;60.318;25.044;2024-02-23T04:40:46;99694.54;;;0.90;61.96
73518;BME280;61766;60.318;25.044;2024-02-23T04:43:11;99687.17;;;2.01;59.76
73518;BME280;61766;60.318;25.044;2024-02-23T04:45:37;99680.39;;;1.51;61.08
73518;BME280;61766;60.318;25.044;2024-02-23T04:48:02;99683.73;;;1.27;61.17
73518;BME280;61766;60.318;25.044;2024-02-23T04:50:28;99687.49;;;1.87;60.25
73518;BME280;61766;60.318;25.044;2024-02-23T04:52:53;99684.02;;;0.87;63.26
73518;BME280;61766;60.318;25.044;2024-02-23T04:55:18;99677.99;;;1.88;61.13
73518;BME280;61766;60.318;25.044;2024-02-23T04:57:43;99673.58;;;0.77;63.57
73518;BME280;61766;60.318;25.044;2024-02-23T05:00:10;99669.32;;;1.53;62.20
73518;BME280;61766;60.318;25.044;2024-02-23T05:02:34;99667.14;;;1.59;61.89
73518;BME280;61766;60.318;25.044;2024-02-23T05:05:00;99656.93;;;1.08;62.32
73518;BME280;61766;60.318;25.044;2024-02-23T05:07:26;99657.18;;;1.12;62.38
73518;BME280;61766;60.318;25.044;2024-02-23T05:09:51;99652.14;;;1.28;62.63
73518;BME280;61766;60.318;25.044;2024-02-23T05:12:16;99649.18;;;1.73;60.44
73518;BME280;61766;60.318;25.044;2024-02-23T05:14:43;99647.62;;;0.99;63.50
73518;BME280;61766;60.318;25.044;2024-02-23T05:17:08;99651.68;;;1.21;63.20
73518;BME280;61766;60.318;25.044;2024-02-23T05:19:33;99658.93;;;1.79;61.30
73518;BME280;61766;60.318;25.044;2024-02-23T05:21:58;99647.38;;;1.36;62.97
73518;BME280;61766;60.318;25.044;2024-02-23T05:24:23;99650.51;;;0.84;63.66
73518;BME280;61766;60.318;25.044;2024-02-23T05:26:49;99644.09;;;0.64;64.83
73518;BME280;61766;60.318;25.044;2024-02-23T05:29:14;99642.00;;;1.12;62.96
73518;BME280;61766;60.318;25.044;2024-02-23T05:31:48;99640.89;;;1.98;61.29
73518;BME280;61766;60.318;25.044;2024-02-23T05:34:04;99637.98;;;1.46;62.74
73518;BME280;61766;60.318;25.044;2024-02-23T05:36:29;99634.07;;;0.92;64.39
73518;BME280;61766;60.318;25.044;2024-02-23T05:38:55;99626.87;;;1.25;63.20
73518;BME280;61766;60.318;25.044;2024-02-23T05:41:20;99617.14;;;1.07;64.21
73518;BME280;61766;60.318;25.044;2024-02-23T05:43:46;99623.80;;;1.23;63.20
73518;BME280;61766;60.318;25.044;2024-02-23T05:46:12;99617.37;;;1.13;63.64
73518;BME280;61766;60.318;25.044;2024-02-23T05:48:37;99624.22;;;1.61;62.49
73518;BME280;61766;60.318;25.044;2024-02-23T05:51:03;99625.75;;;1.59;61.71
73518;BME280;61766;60.318;25.044;2024-02-23T05:53:29;99643.44;;;1.40;62.60
73518;BME280;61766;60.318;25.044;2024-02-23T05:55:54;99638.87;;;1.17;63.44
73518;BME280;61766;60.318;25.044;2024-02-23T05:58:20;99628.14;;;1.37;63.29
73518;BME280;61766;60.318;25.044;2024-02-23T06:00:45;99634.87;;;0.66;64.59
73518;BME280;61766;60.318;25.044;2024-02-23T06:03:10;99637.44;;;0.45;64.90
73518;BME280;61766;60.318;25.044;2024-02-23T06:05:36;99644.25;;;0.46;66.47
73518;BME280;61766;60.318;25.044;2024-02-23T06:08:02;99637.88;;;0.38;66.55
73518;BME280;61766;60.318;25.044;2024-02-23T06:10:28;99643.06;;;0.49;64.92
73518;BME280;61766;60.318;25.044;2024-02-23T06:12:53;99631.96;;;0.70;64.71
73518;BME280;61766;60.318;25.044;2024-02-23T06:15:18;99639.67;;;0.48;65.24
73518;BME280;61766;60.318;25.044;2024-02-23T06:17:44;99628.29;;;0.41;65.70
73518;BME280;61766;60.318;25.044;2024-02-23T06:20:10;99634.70;;;0.04;66.33
73518;BME280;61766;60.318;25.044;2024-02-23T06:22:34;99641.32;;;0.41;65.70
73518;BME280;61766;60.318;25.044;2024-02-23T06:24:59;99631.54;;;0.27;67.15
73518;BME280;61766;60.318;25.044;2024-02-23T06:27:24;99632.91;;;0.23;66.50
73518;BME280;61766;60.318;25.044;2024-02-23T06:29:50;99641.70;;;0.42;65.99
73518;BME280;61766;60.318;25.044;2024-02-23T06:32:15;99640.57;;;0.94;65.21
73518;BME280;61766;60.318;25.044;2024-02-23T06:34:40;99644.71;;;0.22;66.82
73518;BME280;61766;60.318;25.044;2024-02-23T06:37:06;99642.19;;;0.73;65.86
73518;BME280;61766;60.318;25.044;2024-02-23T06:39:31;99647.35;;;0.60;66.94
73518;BME280;61766;60.318;25.044;2024-02-23T06:41:57;99635.14;;;0.59;66.26
73518;BME280;61766;60.318;25.044;2024-02-23T06:44:22;99634.75;;;0.64;67.25
73518;BME280;61766;60.318;25.044;2024-02-23T06:46:47;99632.32;;;0.69;66.53
73518;BME280;61766;60.318;25.044;2024-02-23T06:49:13;99645.36;;;0.37;67.10
73518;BME280;61766;60.318;25.044;2024-02-23T06:51:38;99649.39;;;0.68;66.24
73518;BME280;61766;60.318;25.044;2024-02-23T06:54:04;99641.86;;;1.24;66.20
73518;BME280;61766;60.318;25.044;2024-02-23T06:56:29;99640.81;;;0.78;65.82
73518;BME280;61766;60.318;25.044;2024-02-23T06:58:54;99643.43;;;0.83;65.80
73518;BME280;61766;60.318;25.044;2024-02-23T07:01:19;99637.70;;;1.09;65.63
73518;BME280;61766;60.318;25.044;2024-02-23T07:03:45;99645.97;;;-0.11;67.47
73518;BME280;61766;60.318;25.044;2024-02-23T07:06:11;99639.71;;;0.78;67.14
73518;BME280;61766;60.318;25.044;2024-02-23T07:08:37;99642.27;;;1.00;66.48
73518;BME280;61766;60.318;25.044;2024-02-23T07:11:03;99644.75;;;0.65;66.70
73518;BME280;61766;60.318;25.044;2024-02-23T07:13:28;99648.81;;;0.82;65.85
73518;BME280;61766;60.318;25.044;2024-02-23T07:15:54;99648.64;;;1.08;65.85
73518;BME280;61766;60.318;25.044;2024-02-23T07:18:19;99643.71;;;0.41;66.78
73518;BME280;61766;60.318;25.044;2024-02-23T07:20:45;99639.59;;;0.32;67.46
73518;BME280;61766;60.318;25.044;2024-02-23T07:23:10;99637.56;;;1.22;65.44
73518;BME280;61766;60.318;25.044;2024-02-23T07:25:36;99633.97;;;0.95;65.66
73518;BME280;61766;60.318;25.044;2024-02-23T07:28:02;99626.69;;;0.66;66.77
73518;BME280;61766;60.318;25.044;2024-02-23T07:30:27;99623.78;;;0.67;67.10
73518;BME280;61766;60.318;25.044;2024-02-23T07:32:52;99634.15;;;0.22;68.07
73518;BME280;61766;60.318;25.044;2024-02-23T07:35:18;99627.45;;;1.08;66.15
73518;BME280;61766;60.318;25.044;2024-02-23T07:37:43;99624.52;;;1.37;65.22
73518;BME280;61766;60.318;25.044;2024-02-23T07:40:09;99629.94;;;1.19;65.11
73518;BME280;61766;60.318;25.044;2024-02-23T07:42:35;99625.96;;;1.04;65.89
73518;BME280;61766;60.318;25.044;2024-02-23T07:44:59;99624.40;;;1.51;64.03
73518;BME280;61766;60.318;25.044;2024-02-23T07:47:24;99629.57;;;0.97;65.63
73518;BME280;61766;60.318;25.044;2024-02-23T07:49:50;99629.70;;;0.61;67.17
73518;BME280;61766;60.318;25.044;2024-02-23T07:52:15;99630.45;;;1.09;65.90
73518;BME280;61766;60.318;25.044;2024-02-23T07:54:41;99628.48;;;1.18;65.62
73518;BME280;61766;60.318;25.044;2024-02-23T07:57:06;99625.57;;;1.15;65.80
73518;BME280;61766;60.318;25.044;2024-02-23T07:59:32;99639.76;;;0.77;66.64
73518;BME280;61766;60.318;25.044;2024-02-23T08:01:57;99632.26;;;0.81;67.40
73518;BME280;61766;60.318;25.044;2024-02-23T08:04:23;99627.82;;;1.06;66.46
73518;BME280;61766;60.318;25.044;2024-02-23T08:06:48;99627.56;;;1.24;65.16
73518;BME280;61766;60.318;25.044;2024-02-23T08:09:14;99642.01;;;1.58;63.50
73518;BME280;61766;60.318;25.044;2024-02-23T08:11:39;99630.85;;;1.45;64.65
73518;BME280;61766;60.318;25.044;2024-02-23T08:14:05;99629.89;;;1.32;63.54
73518;BME280;61766;60.318;25.044;2024-02-23T08:16:31;99631.98;;;1.30;64.36
73518;BME280;61766;60.318;25.044;2024-02-23T08:18:56;99633.72;;;1.63;62.57
73518;BME280;61766;60.318;25.044;2024-02-23T08:21:22;99623.11;;;2.09;62.21
73518;BME280;61766;60.318;25.044;2024-02-23T08:23:47;99627.89;;;1.37;64.49
73518;BME280;61766;60.318;25.044;2024-02-23T08:26:12;99632.18;;;1.59;63.55
73518;BME280;61766;60.318;25.044;2024-02-23T08:28:38;99633.04;;;0.98;65.70
73518;BME280;61766;60.318;25.044;2024-02-23T08:31:04;99631.74;;;1.23;63.92
73518;BME280;61766;60.318;25.044;2024-02-23T08:33:29;99626.63;;;1.82;62.74
73518;BME280;61766;60.318;25.044;2024-02-23T08:35:55;99631.33;;;0.34;66.44
73518;BME280;61766;60.318;25.044;2024-02-23T08:38:20;99626.88;;;0.76;66.14
73518;BME280;61766;60.318;25.044;2024-02-23T08:40:45;99630.48;;;1.04;66.04
73518;BME280;61766;60.318;25.044;2024-02-23T08:43:11;99642.88;;;0.21;67.43
73518;BME280;61766;60.318;25.044;2024-02-23T08:45:36;99626.53;;;0.76;66.33
73518;BME280;61766;60.318;25.044;2024-02-23T08:48:02;99628.05;;;1.32;64.26
73518;BME280;61766;60.318;25.044;2024-02-23T08:50:27;99625.66;;;1.92;63.35
73518;BME280;61766;60.318;25.044;2024-02-23T08:52:52;99625.60;;;1.26;65.12
73518;BME280;61766;60.318;25.044;2024-02-23T08:55:18;99621.90;;;1.48;64.08
73518;BME280;61766;60.318;25.044;2024-02-23T08:57:43;99618.51;;;1.71;63.89
73518;BME280;61766;60.318;25.044;2024-02-23T09:00:09;99624.51;;;1.18;64.44
73518;BME280;61766;60.318;25.044;2024-02-23T09:02:33;99627.24;;;1.17;64.82
73518;BME280;61766;60.318;25.044;2024-02-23T09:04:58;99620.62;;;0.88;66.28
73518;BME280;61766;60.318;25.044;2024-02-23T09:07:24;99612.22;;;0.94;65.91
73518;BME280;61766;60.318;25.044;2024-02-23T09:09:50;99606.67;;;1.39;64.82
73518;BME280;61766;60.318;25.044;2024-02-23T09:12:15;99602.94;;;1.66;63.73
73518;BME280;61766;60.318;25.044;2024-02-23T09:14:40;99603.18;;;1.25;65.19
73518;BME280;61766;60.318;25.044;2024-02-23T09:17:06;99587.17;;;1.67;63.19
73518;BME280;61766;60.318;25.044;2024-02-23T09:19:31;99595.31;;;1.74;63.70
73518;BME280;61766;60.318;25.044;2024-02-23T09:21:56;99593.74;;;2.22;62.50
73518;BME280;61766;60.318;25.044;2024-02-23T09:24:22;99602.93;;;1.40;64.79
73518;BME280;61766;60.318;25.044;2024-02-23T09:26:50;99594.67;;;1.82;64.00
73518;BME280;61766;60.318;25.044;2024-02-23T09:29:13;99601.98;;;1.95;63.99
73518;BME280;61766;60.318;25.044;2024-02-23T09:31:39;99597.43;;;2.18;62.05
73518;BME280;61766;60.318;25.044;2024-02-23T09:34:04;99601.25;;;0.82;65.98
73518;BME280;61766;60.318;25.044;2024-02-23T09:36:30;99597.15;;;1.25;65.44
73518;BME280;61766;60.318;25.044;2024-02-23T09:38:55;99596.03;;;0.98;66.89
73518;BME280;61766;60.318;25.044;2024-02-23T09:41:23;99601.91;;;1.85;64.00
73518;BME280;61766;60.318;25.044;2024-02-23T09:43:48;99593.81;;;1.89;63.60
73518;BME280;61766;60.318;25.044;2024-02-23T09:46:12;99591.37;;;1.88;63.38
73518;BME280;61766;60.318;25.044;2024-02-23T09:48:38;99592.58;;;2.06;64.05
73518;BME280;61766;60.318;25.044;2024-02-23T09:51:03;99594.10;;;1.61;63.58
73518;BME280;61766;60.318;25.044;2024-02-23T09:53:28;99598.86;;;1.44;65.53
73518;BME280;61766;60.318;25.044;2024-02-23T09:55:53;99592.45;;;1.28;64.92
73518;BME280;61766;60.318;25.044;2024-02-23T09:58:19;99590.77;;;1.93;63.81
73518;BME280;61766;60.318;25.044;2024-02-23T10:00:44;99598.98;;;1.40;64.77
73518;BME280;61766;60.318;25.044;2024-02-23T10:03:10;99597.21;;;0.93;65.97
73518;BME280;61766;60.318;25.044;2024-02-23T10:05:35;99593.45;;;1.83;64.10
73518;BME280;61766;60.318;25.044;2024-02-23T10:08:00;99588.71;;;1.60;64.24
73518;BME280;61766;60.318;25.044;2024-02-23T10:10:29;99595.34;;;1.15;64.33
73518;BME280;61766;60.318;25.044;2024-02-23T10:12:51;99598.65;;;1.15;65.30
73518;BME280;61766;60.318;25.044;2024-02-23T10:15:18;99594.44;;;0.98;66.93
73518;BME280;61766;60.318;25.044;2024-02-23T10:17:43;99600.01;;;1.14;65.24
73518;BME280;61766;60.318;25.044;2024-02-23T10:20:09;99593.14;;;1.73;63.57
73518;BME280;61766;60.318;25.044;2024-02-23T10:22:34;99585.79;;;0.92;65.93
73518;BME280;61766;60.318;25.044;2024-02-23T10:24:59;99578.88;;;1.82;63.92
73518;BME280;61766;60.318;25.044;2024-02-23T10:27:24;99592.32;;;0.74;65.93
73518;BME280;61766;60.318;25.044;2024-02-23T10:29:52;99588.17;;;1.16;64.81
73518;BME280;61766;60.318;25.044;2024-02-23T10:32:18;99577.72;;;1.05;66.23
73518;BME280;61766;60.318;25.044;2024-02-23T10:34:42;99579.45;;;1.26;64.98
73518;BME280;61766;60.318;25.044;2024-02-23T10:37:09;99577.92;;;1.68;64.14
73518;BME280;61766;60.318;25.044;2024-02-23T10:39:32;99573.87;;;1.54;64.14
73518;BME280;61766;60.318;25.044;2024-02-23T10:42:02;99574.58;;;1.48;64.55
73518;BME280;61766;60.318;25.044;2024-02-23T10:44:23;99573.35;;;1.70;63.49
73518;BME280;61766;60.318;25.044;2024-02-23T10:46:49;99571.22;;;1.75;64.04
73518;BME280;61766;60.318;25.044;2024-02-23T10:49:14;99576.87;;;1.16;64.50
73518;BME280;61766;60.318;25.044;2024-02-23T10:51:40;99578.34;;;1.76;63.50
73518;BME280;61766;60.318;25.044;2024-02-23T10:54:05;99569.16;;;1.81;63.40
73518;BME280;61766;60.318;25.044;2024-02-23T10:56:29;99569.80;;;2.29;62.89
73518;BME280;61766;60.318;25.044;2024-02-23T10:58:55;99576.46;;;1.33;64.36
73518;BME280;61766;60.318;25.044;2024-02-23T11:01:21;99566.41;;;2.31;62.65
73518;BME280;61766;60.318;25.044;2024-02-23T11:03:47;99575.78;;;1.37;65.17
73518;BME280;61766;60.318;25.044;2024-02-23T11:06:11;99568.00;;;1.17;65.30
73518;BME280;61766;60.318;25.044;2024-02-23T11:08:36;99564.74;;;2.11;63.37
73518;BME280;61766;60.318;25.044;2024-02-23T11:11:08;99569.97;;;1.18;65.65
73518;BME280;61766;60.318;25.044;2024-02-23T11:13:34;99574.33;;;0.62;67.13
73518;BME280;61766;60.318;25.044;2024-02-23T11:15:52;99571.79;;;0.96;65.97
73518;BME280;61766;60.318;25.044;2024-02-23T11:18:27;99558.75;;;1.96;64.75
73518;BME280;61766;60.318;25.044;2024-02-23T11:20:43;99566.42;;;2.05;62.71
73518;BME280;61766;60.318;25.044;2024-02-23T11:23:13;99565.66;;;1.61;64.69
73518;BME280;61766;60.318;25.044;2024-02-23T11:25:34;99557.50;;;0.72;65.74
73518;BME280;61766;60.318;25.044;2024-02-23T11:27:59;99549.33;;;2.38;62.28
73518;BME280;61766;60.318;25.044;2024-02-23T11:30:25;99547.93;;;2.38;61.58
73518;BME280;61766;60.318;25.044;2024-02-23T11:32:51;99554.67;;;1.87;63.32
73518;BME280;61766;60.318;25.044;2024-02-23T11:35:16;99547.73;;;1.87;63.38
73518;BME280;61766;60.318;25.044;2024-02-23T11:37:49;99563.30;;;1.37;64.77
73518;BME280;61766;60.318;25.044;2024-02-23T11:40:08;99565.06;;;1.37;64.81
73518;BME280;61766;60.318;25.044;2024-02-23T11:42:33;99565.25;;;1.33;64.43
73518;BME280;61766;60.318;25.044;2024-02-23T11:44:58;99566.12;;;1.44;64.18
73518;BME280;61766;60.318;25.044;2024-02-23T11:47:23;99558.46;;;2.29;62.73
73518;BME280;61766;60.318;25.044;2024-02-23T11:49:48;99553.84;;;2.07;63.11
73518;BME280;61766;60.318;25.044;2024-02-23T11:52:13;99550.02;;;1.88;63.51
73518;BME280;61766;60.318;25.044;2024-02-23T11:54:39;99545.17;;;1.90;63.50
73518;BME280;61766;60.318;25.044;2024-02-23T11:57:04;99547.54;;;1.70;63.49
73518;BME280;61766;60.318;25.044;2024-02-23T11:59:29;99549.00;;;2.52;62.00
73518;BME280;61766;60.318;25.044;2024-02-23T12:01:54;99554.95;;;1.92;63.99
73518;BME280;61766;60.318;25.044;2024-02-23T12:04:20;99549.36;;;1.62;64.31
73518;BME280;61766;60.318;25.044;2024-02-23T12:06:45;99544.06;;;2.53;62.11
73518;BME280;61766;60.318;25.044;2024-02-23T12:09:11;99546.87;;;2.00;62.65
73518;BME280;61766;60.318;25.044;2024-02-23T12:11:36;99542.91;;;2.17;61.76
73518;BME280;61766;60.318;25.044;2024-02-23T12:14:01;99555.08;;;2.24;62.38
73518;BME280;61766;60.318;25.044;2024-02-23T12:16:27;99543.97;;;2.48;60.90
73518;BME280;61766;60.318;25.044;2024-02-23T12:18:56;99539.63;;;3.33;59.56
73518;BME280;61766;60.318;25.044;2024-02-23T12:21:18;99552.47;;;3.12;58.51
73518;BME280;61766;60.318;25.044;2024-02-23T12:23:44;99547.55;;;2.78;59.60
73518;BME280;61766;60.318;25.044;2024-02-23T12:26:09;99554.55;;;3.52;58.73
73518;BME280;61766;60.318;25.044;2024-02-23T12:28:35;99557.67;;;2.66;59.94
73518;BME280;61766;60.318;25.044;2024-02-23T12:31:03;99556.61;;;1.36;62.12
73518;BME280;61766;60.318;25.044;2024-02-23T12:33:27;99556.33;;;3.22;59.25
73518;BME280;61766;60.318;25.044;2024-02-23T12:35:53;99553.06;;;2.98;58.68
73518;BME280;61766;60.318;25.044;2024-02-23T12:38:16;99567.08;;;1.43;62.47
73518;BME280;61766;60.318;25.044;2024-02-23T12:40:42;99560.49;;;2.44;60.40
73518;BME280;61766;60.318;25.044;2024-02-23T12:43:08;99560.51;;;2.88;59.29
73518;BME280;61766;60.318;25.044;2024-02-23T12:45:33;99562.41;;;3.20;58.42
73518;BME280;61766;60.318;25.044;2024-02-23T12:47:59;99557.57;;;2.96;58.75
73518;BME280;61766;60.318;25.044;2024-02-23T12:50:24;99565.80;;;3.39;57.38